sensor_id;sensor_type;location;lat;lon;timestamp;pressure;altitude;pressure_sealevel;temperature;humidity
53689;BME280;39583;54.682;30.662;2023-04-28T05:58:56;99581.22;;;9.31;89.33
53689;BME280;39583;54.682;30.662;2023-04-28T06:01:24;99577.06;;;9.42;90.70
53689;BME280;39583;54.682;30.662;2023-04-28T06:03:50;99572.94;;;9.53;91.51
53689;BME280;39583;54.682;30.662;2023-04-28T06:06:18;99584.25;;;9.61;91.34
53689;BME280;39583;54.682;30.662;2023-04-28T06:08:44;99586.13;;;9.61;90.97
53689;BME280;39583;54.682;30.662;2023-04-28T06:11:12;99596.28;;;9.52;89.27
53689;BME280;39583;54.682;30.662;2023-04-28T06:13:38;99591.13;;;9.51;88.50
53689;BME280;39583;54.682;30.662;2023-04-28T06:16:04;99603.53;;;9.52;87.88
53689;BME280;39583;54.682;30.662;2023-04-28T06:18:30;99597.50;;;9.56;87.46
53689;BME280;39583;54.682;30.662;2023-04-28T06:21:01;99604.16;;;9.54;85.96
53689;BME280;39583;54.682;30.662;2023-04-28T06:23:27;99602.50;;;9.46;85.33
53689;BME280;39583;54.682;30.662;2023-04-28T06:25:53;99610.16;;;9.42;84.07
53689;BME280;39583;54.682;30.662;2023-04-28T06:28:19;99606.44;;;9.43;84.27
53689;BME280;39583;54.682;30.662;2023-04-28T06:30:45;99615.72;;;9.34;83.91
53689;BME280;39583;54.682;30.662;2023-04-28T06:33:11;99619.88;;;9.17;82.43
53689;BME280;39583;54.682;30.662;2023-04-28T06:35:38;99623.59;;;9.03;82.58
53689;BME280;39583;54.682;30.662;2023-04-28T06:38:05;99591.75;;;8.80;81.89
53689;BME280;39583;54.682;30.662;2023-04-28T06:40:31;99609.31;;;8.96;82.60
53689;BME280;39583;54.682;30.662;2023-04-28T06:42:59;99620.88;;;8.83;82.29
53689;BME280;39583;54.682;30.662;2023-04-28T06:45:51;99615.06;;;8.66;82.72
53689;BME280;39583;54.682;30.662;2023-04-28T06:48:17;99615.69;;;8.62;82.69
53689;BME280;39583;54.682;30.662;2023-04-28T06:50:43;99623.75;;;8.62;82.89
53689;BME280;39583;54.682;30.662;2023-04-28T06:53:09;99619.22;;;8.75;82.26
53689;BME280;39583;54.682;30.662;2023-04-28T06:55:35;99621.91;;;8.75;82.02
53689;BME280;39583;54.682;30.662;2023-04-28T06:58:01;99622.94;;;8.81;81.31
53689;BME280;39583;54.682;30.662;2023-04-28T07:00:27;99611.41;;;8.87;80.96
53689;BME280;39583;54.682;30.662;2023-04-28T07:02:53;99610.38;;;9.01;81.78
53689;BME280;39583;54.682;30.662;2023-04-28T07:05:18;99602.91;;;9.23;82.63
53689;BME280;39583;54.682;30.662;2023-04-28T07:07:44;99607.88;;;9.39;82.82
53689;BME280;39583;54.682;30.662;2023-04-28T07:10:10;99606.22;;;9.52;82.51
53689;BME280;39583;54.682;30.662;2023-04-28T07:12:37;99609.06;;;9.63;81.24
53689;BME280;39583;54.682;30.662;2023-04-28T07:15:04;99603.06;;;9.68;78.69
53689;BME280;39583;54.682;30.662;2023-04-28T07:17:31;99614.00;;;9.80;78.80
53689;BME280;39583;54.682;30.662;2023-04-28T07:19:56;99624.53;;;9.94;78.25
53689;BME280;39583;54.682;30.662;2023-04-28T07:22:22;99607.44;;;10.20;78.84
53689;BME280;39583;54.682;30.662;2023-04-28T07:24:48;99610.06;;;10.40;77.41
53689;BME280;39583;54.682;30.662;2023-04-28T07:27:14;99612.50;;;10.55;75.84
53689;BME280;39583;54.682;30.662;2023-04-28T07:29:40;99606.81;;;10.70;74.48
53689;BME280;39583;54.682;30.662;2023-04-28T07:32:06;99619.91;;;10.91;74.63
53689;BME280;39583;54.682;30.662;2023-04-28T07:34:35;99603.13;;;11.20;74.14
53689;BME280;39583;54.682;30.662;2023-04-28T07:37:02;99615.44;;;11.35;69.94
53689;BME280;39583;54.682;30.662;2023-04-28T07:39:30;99616.97;;;11.49;70.38
53689;BME280;39583;54.682;30.662;2023-04-28T07:41:56;99605.16;;;11.25;68.35
53689;BME280;39583;54.682;30.662;2023-04-28T07:44:23;99615.03;;;11.06;66.43
53689;BME280;39583;54.682;30.662;2023-04-28T07:46:49;99625.56;;;10.83;67.40
53689;BME280;39583;54.682;30.662;2023-04-28T07:49:15;99622.75;;;10.71;66.57
53689;BME280;39583;54.682;30.662;2023-04-28T07:51:41;99617.13;;;11.04;68.22
53689;BME280;39583;54.682;30.662;2023-04-28T07:54:07;99603.94;;;11.46;68.18
53689;BME280;39583;54.682;30.662;2023-04-28T07:56:33;99603.97;;;11.82;67.28
53689;BME280;39583;54.682;30.662;2023-04-28T07:59:00;99606.72;;;11.76;65.99
53689;BME280;39583;54.682;30.662;2023-04-28T08:01:26;99616.75;;;11.69;64.69
53689;BME280;39583;54.682;30.662;2023-04-28T08:03:52;99627.03;;;11.35;63.24
53689;BME280;39583;54.682;30.662;2023-04-28T08:06:18;99612.31;;;11.06;64.09
53689;BME280;39583;54.682;30.662;2023-04-28T08:08:44;99625.50;;;10.96;65.09
53689;BME280;39583;54.682;30.662;2023-04-28T08:11:10;99619.56;;;11.12;64.56
53689;BME280;39583;54.682;30.662;2023-04-28T08:13:36;99619.56;;;11.37;65.65
53689;BME280;39583;54.682;30.662;2023-04-28T08:16:02;99611.31;;;11.75;65.19
53689;BME280;39583;54.682;30.662;2023-04-28T08:18:28;99623.47;;;12.03;64.51
53689;BME280;39583;54.682;30.662;2023-04-28T08:20:54;99613.88;;;12.07;63.56
53689;BME280;39583;54.682;30.662;2023-04-28T08:23:20;99617.91;;;11.79;62.86
53689;BME280;39583;54.682;30.662;2023-04-28T08:25:46;99618.06;;;11.41;62.68
53689;BME280;39583;54.682;30.662;2023-04-28T08:28:12;99622.00;;;11.20;62.45
53689;BME280;39583;54.682;30.662;2023-04-28T08:30:38;99623.63;;;11.21;63.72
53689;BME280;39583;54.682;30.662;2023-04-28T08:33:04;99628.13;;;11.28;62.95
53689;BME280;39583;54.682;30.662;2023-04-28T08:35:30;99609.72;;;11.25;62.36
53689;BME280;39583;54.682;30.662;2023-04-28T08:37:56;99619.81;;;11.54;62.32
53689;BME280;39583;54.682;30.662;2023-04-28T08:40:22;99619.41;;;11.75;60.39
53689;BME280;39583;54.682;30.662;2023-04-28T08:42:50;99628.19;;;11.89;60.46
53689;BME280;39583;54.682;30.662;2023-04-28T08:45:16;99626.00;;;11.79;59.92
53689;BME280;39583;54.682;30.662;2023-04-28T08:47:42;99629.03;;;11.90;61.95
53689;BME280;39583;54.682;30.662;2023-04-28T08:50:12;99613.06;;;11.88;59.92
53689;BME280;39583;54.682;30.662;2023-04-28T08:52:40;99617.50;;;12.01;60.44
53689;BME280;39583;54.682;30.662;2023-04-28T08:55:08;99621.91;;;11.70;57.17
53689;BME280;39583;54.682;30.662;2023-04-28T08:57:48;99628.34;;;11.26;56.42
53689;BME280;39583;54.682;30.662;2023-04-28T09:00:14;99628.94;;;11.03;58.75
53689;BME280;39583;54.682;30.662;2023-04-28T09:02:40;99630.06;;;10.96;58.54
53689;BME280;39583;54.682;30.662;2023-04-28T09:05:07;99622.03;;;11.14;59.53
53689;BME280;39583;54.682;30.662;2023-04-28T09:07:34;99623.69;;;11.58;60.58
53689;BME280;39583;54.682;30.662;2023-04-28T09:10:17;99618.16;;;12.15;61.88
53689;BME280;39583;54.682;30.662;2023-04-28T09:12:44;99617.63;;;12.06;58.32
53689;BME280;39583;54.682;30.662;2023-04-28T09:15:10;99618.94;;;11.78;56.88
53689;BME280;39583;54.682;30.662;2023-04-28T09:17:50;99622.38;;;11.67;59.36
53689;BME280;39583;54.682;30.662;2023-04-28T09:20:20;99601.28;;;11.58;58.71
53689;BME280;39583;54.682;30.662;2023-04-28T09:22:48;99619.94;;;11.84;60.12
53689;BME280;39583;54.682;30.662;2023-04-28T09:25:15;99608.78;;;12.17;60.96
53689;BME280;39583;54.682;30.662;2023-04-28T09:27:41;99604.59;;;12.51;60.70
53689;BME280;39583;54.682;30.662;2023-04-28T09:30:07;99610.44;;;12.78;58.36
53689;BME280;39583;54.682;30.662;2023-04-28T09:32:34;99614.06;;;12.72;57.89
53689;BME280;39583;54.682;30.662;2023-04-28T09:35:01;99620.53;;;12.41;57.78
53689;BME280;39583;54.682;30.662;2023-04-28T09:37:30;99597.69;;;12.07;59.14
53689;BME280;39583;54.682;30.662;2023-04-28T09:40:02;99629.34;;;12.00;55.54
53689;BME280;39583;54.682;30.662;2023-04-28T09:42:43;99621.50;;;11.73;56.09
53689;BME280;39583;54.682;30.662;2023-04-28T09:45:14;99614.41;;;11.79;58.04
53689;BME280;39583;54.682;30.662;2023-04-28T10:18:13;99623.56;;;12.75;49.65
53689;BME280;39583;54.682;30.662;2023-04-28T10:20:52;99623.38;;;12.76;51.62
53689;BME280;39583;54.682;30.662;2023-04-28T10:26:08;99634.25;;;12.69;52.18
53689;BME280;39583;54.682;30.662;2023-04-28T10:28:35;99639.31;;;12.66;55.96
53689;BME280;39583;54.682;30.662;2023-04-28T10:31:09;99627.56;;;12.72;54.26
53689;BME280;39583;54.682;30.662;2023-04-28T10:33:37;99630.31;;;12.84;54.76
53689;BME280;39583;54.682;30.662;2023-04-28T10:36:03;99627.28;;;12.92;53.91
53689;BME280;39583;54.682;30.662;2023-04-28T10:38:30;99627.72;;;12.77;51.19
53689;BME280;39583;54.682;30.662;2023-04-28T10:40:56;99613.94;;;12.67;52.81
53689;BME280;39583;54.682;30.662;2023-04-28T10:56:16;99623.41;;;13.30;52.32
53689;BME280;39583;54.682;30.662;2023-04-28T10:58:56;99626.69;;;13.32;52.67
53689;BME280;39583;54.682;30.662;2023-04-28T11:06:27;99637.16;;;13.40;52.21
53689;BME280;39583;54.682;30.662;2023-04-28T11:16:51;99632.13;;;13.55;50.21
53689;BME280;39583;54.682;30.662;2023-04-28T11:19:20;99639.84;;;13.51;46.71
53689;BME280;39583;54.682;30.662;2023-04-28T11:21:47;99637.63;;;13.48;48.07
53689;BME280;39583;54.682;30.662;2023-04-28T11:24:14;99643.28;;;13.58;49.19
53689;BME280;39583;54.682;30.662;2023-04-28T11:26:40;99648.47;;;13.83;47.88
53689;BME280;39583;54.682;30.662;2023-04-28T11:29:07;99648.81;;;13.87;47.11
53689;BME280;39583;54.682;30.662;2023-04-28T11:31:33;99649.84;;;13.98;47.68
53689;BME280;39583;54.682;30.662;2023-04-28T11:34:03;99646.66;;;14.01;47.69
53689;BME280;39583;54.682;30.662;2023-04-28T11:36:35;99636.34;;;13.86;47.17
53689;BME280;39583;54.682;30.662;2023-04-28T11:39:05;99642.56;;;13.86;48.86
53689;BME280;39583;54.682;30.662;2023-04-28T11:41:36;99651.75;;;13.62;49.28
53689;BME280;39583;54.682;30.662;2023-04-28T11:44:15;99641.72;;;13.27;50.04
53689;BME280;39583;54.682;30.662;2023-04-28T11:49:17;99640.00;;;13.15;52.07
53689;BME280;39583;54.682;30.662;2023-04-28T11:51:43;99642.09;;;13.31;51.57
53689;BME280;39583;54.682;30.662;2023-04-28T11:54:22;99660.53;;;13.22;48.38
53689;BME280;39583;54.682;30.662;2023-04-28T11:56:49;99657.88;;;13.04;47.55
53689;BME280;39583;54.682;30.662;2023-04-28T11:59:15;99649.91;;;12.79;47.05
53689;BME280;39583;54.682;30.662;2023-04-28T12:01:50;99646.44;;;12.90;48.43
53689;BME280;39583;54.682;30.662;2023-04-28T12:04:34;99627.59;;;12.84;48.58
53689;BME280;39583;54.682;30.662;2023-04-28T12:07:13;99644.41;;;12.86;47.97
53689;BME280;39583;54.682;30.662;2023-04-28T12:09:41;99650.69;;;12.68;46.70
53689;BME280;39583;54.682;30.662;2023-04-28T12:12:08;99644.94;;;12.64;46.94
53689;BME280;39583;54.682;30.662;2023-04-28T12:17:24;99645.59;;;12.60;47.85
53689;BME280;39583;54.682;30.662;2023-04-28T12:19:52;99646.88;;;12.87;49.50
53689;BME280;39583;54.682;30.662;2023-04-28T12:22:17;99638.97;;;13.16;48.17
53689;BME280;39583;54.682;30.662;2023-04-28T12:24:43;99647.25;;;13.21;48.12
53689;BME280;39583;54.682;30.662;2023-04-28T12:27:19;99644.78;;;13.31;45.08
53689;BME280;39583;54.682;30.662;2023-04-28T12:29:50;99639.13;;;13.21;42.90
53689;BME280;39583;54.682;30.662;2023-04-28T12:32:16;99646.03;;;13.17;44.74
53689;BME280;39583;54.682;30.662;2023-04-28T12:34:45;99641.13;;;13.25;45.17
53689;BME280;39583;54.682;30.662;2023-04-28T12:37:11;99641.13;;;13.25;45.72
53689;BME280;39583;54.682;30.662;2023-04-28T12:39:39;99652.69;;;13.03;43.53
53689;BME280;39583;54.682;30.662;2023-04-28T12:42:05;99644.56;;;12.91;43.65
53689;BME280;39583;54.682;30.662;2023-04-28T12:44:32;99643.94;;;12.89;44.93
53689;BME280;39583;54.682;30.662;2023-04-28T12:47:08;99642.91;;;12.90;45.02
53689;BME280;39583;54.682;30.662;2023-04-28T12:49:36;99650.72;;;13.10;45.31
53689;BME280;39583;54.682;30.662;2023-04-28T12:52:03;99633.75;;;13.33;44.23
53689;BME280;39583;54.682;30.662;2023-04-28T12:54:29;99638.53;;;13.19;45.32
53689;BME280;39583;54.682;30.662;2023-04-28T12:56:56;99653.38;;;12.98;45.13
53689;BME280;39583;54.682;30.662;2023-04-28T12:59:22;99647.00;;;12.81;46.21
53689;BME280;39583;54.682;30.662;2023-04-28T13:01:48;99657.16;;;12.49;43.28
53689;BME280;39583;54.682;30.662;2023-04-28T13:04:16;99643.19;;;12.22;43.37
53689;BME280;39583;54.682;30.662;2023-04-28T13:06:42;99653.16;;;12.03;43.67
53689;BME280;39583;54.682;30.662;2023-04-28T13:09:12;99644.91;;;11.98;43.89
53689;BME280;39583;54.682;30.662;2023-04-28T13:11:40;99643.09;;;11.92;44.30
53689;BME280;39583;54.682;30.662;2023-04-28T13:14:07;99653.31;;;11.90;42.08
53689;BME280;39583;54.682;30.662;2023-04-28T13:16:33;99632.66;;;11.77;44.01
53689;BME280;39583;54.682;30.662;2023-04-28T13:19:00;99645.91;;;11.78;42.92
53689;BME280;39583;54.682;30.662;2023-04-28T13:21:26;99645.31;;;11.76;42.94
53689;BME280;39583;54.682;30.662;2023-04-28T13:23:54;99644.72;;;11.74;42.44
53689;BME280;39583;54.682;30.662;2023-04-28T13:26:21;99653.00;;;11.98;43.88
53689;BME280;39583;54.682;30.662;2023-04-28T13:28:52;99651.03;;;12.42;43.88
53689;BME280;39583;54.682;30.662;2023-04-28T13:31:18;99653.22;;;12.51;42.41
53689;BME280;39583;54.682;30.662;2023-04-28T13:33:44;99645.47;;;12.36;43.89
53689;BME280;39583;54.682;30.662;2023-04-28T13:36:10;99641.75;;;12.37;45.09
53689;BME280;39583;54.682;30.662;2023-04-28T13:38:37;99646.63;;;12.29;45.15
53689;BME280;39583;54.682;30.662;2023-04-28T13:41:03;99646.44;;;12.12;44.18
53689;BME280;39583;54.682;30.662;2023-04-28T13:43:29;99653.38;;;11.83;43.12
53689;BME280;39583;54.682;30.662;2023-04-28T13:45:56;99640.69;;;11.84;43.76
53689;BME280;39583;54.682;30.662;2023-04-28T13:48:22;99645.50;;;11.81;44.19
53689;BME280;39583;54.682;30.662;2023-04-28T13:50:48;99647.66;;;11.73;42.98
53689;BME280;39583;54.682;30.662;2023-04-28T13:53:14;99640.97;;;11.75;41.94
53689;BME280;39583;54.682;30.662;2023-04-28T13:55:40;99640.53;;;11.78;41.68
53689;BME280;39583;54.682;30.662;2023-04-28T13:58:06;99634.06;;;11.86;41.85
53689;BME280;39583;54.682;30.662;2023-04-28T14:00:33;99636.66;;;11.93;41.76
53689;BME280;39583;54.682;30.662;2023-04-28T14:02:59;99646.94;;;12.02;40.06
53689;BME280;39583;54.682;30.662;2023-04-28T14:05:26;99620.94;;;11.90;39.69
53689;BME280;39583;54.682;30.662;2023-04-28T14:07:53;99657.66;;;12.09;39.20
53689;BME280;39583;54.682;30.662;2023-04-28T14:10:20;99648.81;;;12.02;37.50
53689;BME280;39583;54.682;30.662;2023-04-28T14:12:47;99640.09;;;11.81;38.04
53689;BME280;39583;54.682;30.662;2023-04-28T14:15:14;99641.75;;;11.82;38.45
53689;BME280;39583;54.682;30.662;2023-04-28T14:17:41;99638.22;;;11.82;36.90
53689;BME280;39583;54.682;30.662;2023-04-28T14:20:08;99641.22;;;11.92;37.67
53689;BME280;39583;54.682;30.662;2023-04-28T14:22:37;99611.91;;;11.77;37.91
53689;BME280;39583;54.682;30.662;2023-04-28T14:25:03;99638.06;;;11.77;39.16
53689;BME280;39583;54.682;30.662;2023-04-28T14:27:29;99640.69;;;11.59;38.99
53689;BME280;39583;54.682;30.662;2023-04-28T14:29:55;99637.13;;;11.65;39.29
53689;BME280;39583;54.682;30.662;2023-04-28T14:32:22;99644.06;;;11.79;38.79
53689;BME280;39583;54.682;30.662;2023-04-28T14:34:48;99635.69;;;11.87;38.18
53689;BME280;39583;54.682;30.662;2023-04-28T14:37:15;99639.59;;;11.91;38.91
53689;BME280;39583;54.682;30.662;2023-04-28T14:39:42;99615.66;;;11.76;38.34
53689;BME280;39583;54.682;30.662;2023-04-28T14:42:09;99640.16;;;11.75;38.90
53689;BME280;39583;54.682;30.662;2023-04-28T14:44:35;99638.91;;;11.52;38.77
53689;BME280;39583;54.682;30.662;2023-04-28T14:47:01;99641.94;;;11.38;37.89
53689;BME280;39583;54.682;30.662;2023-04-28T14:49:27;99630.91;;;11.21;38.34
53689;BME280;39583;54.682;30.662;2023-04-28T14:51:53;99636.16;;;11.09;38.05
53689;BME280;39583;54.682;30.662;2023-04-28T14:54:19;99627.78;;;11.17;36.97
53689;BME280;39583;54.682;30.662;2023-04-28T14:56:47;99631.59;;;11.35;37.00
53689;BME280;39583;54.682;30.662;2023-04-28T14:59:13;99631.88;;;11.51;37.35
53689;BME280;39583;54.682;30.662;2023-04-28T15:01:40;99634.66;;;11.63;35.99
53689;BME280;39583;54.682;30.662;2023-04-28T15:04:06;99630.69;;;11.66;35.81
53689;BME280;39583;54.682;30.662;2023-04-28T15:06:34;99639.28;;;11.81;35.55
53689;BME280;39583;54.682;30.662;2023-04-28T15:09:00;99637.94;;;11.90;35.70
53689;BME280;39583;54.682;30.662;2023-04-28T15:11:26;99629.56;;;11.98;36.11
53689;BME280;39583;54.682;30.662;2023-04-28T15:13:52;99622.56;;;12.09;36.66
53689;BME280;39583;54.682;30.662;2023-04-28T15:16:18;99636.19;;;12.32;36.23
53689;BME280;39583;54.682;30.662;2023-04-28T15:18:44;99632.59;;;12.38;35.76
53689;BME280;39583;54.682;30.662;2023-04-28T15:21:10;99635.16;;;12.33;36.03
53689;BME280;39583;54.682;30.662;2023-04-28T15:23:37;99629.03;;;12.26;35.50
53689;BME280;39583;54.682;30.662;2023-04-28T15:26:03;99625.44;;;12.14;35.57
53689;BME280;39583;54.682;30.662;2023-04-28T15:28:29;99628.94;;;12.15;35.12
53689;BME280;39583;54.682;30.662;2023-04-28T15:30:55;99636.81;;;12.16;35.59
53689;BME280;39583;54.682;30.662;2023-04-28T15:33:21;99630.22;;;12.12;35.25
53689;BME280;39583;54.682;30.662;2023-04-28T15:35:48;99628.41;;;12.06;35.40
53689;BME280;39583;54.682;30.662;2023-04-28T15:38:14;99635.56;;;12.00;35.58
53689;BME280;39583;54.682;30.662;2023-04-28T15:40:41;99642.44;;;11.96;34.92
53689;BME280;39583;54.682;30.662;2023-04-28T15:43:08;99628.72;;;11.79;34.65
53689;BME280;39583;54.682;30.662;2023-04-28T15:45:34;99638.00;;;11.84;35.01
53689;BME280;39583;54.682;30.662;2023-04-28T15:48:00;99641.16;;;11.80;34.43
53689;BME280;39583;54.682;30.662;2023-04-28T15:50:26;99644.84;;;11.86;34.33
53689;BME280;39583;54.682;30.662;2023-04-28T15:52:52;99638.09;;;11.70;34.66
53689;BME280;39583;54.682;30.662;2023-04-28T15:55:20;99643.50;;;11.45;35.42
53689;BME280;39583;54.682;30.662;2023-04-28T15:57:47;99637.59;;;11.62;36.35
53689;BME280;39583;54.682;30.662;2023-04-28T16:00:14;99646.19;;;11.95;35.93
53689;BME280;39583;54.682;30.662;2023-04-28T16:02:41;99643.84;;;12.35;35.33
53689;BME280;39583;54.682;30.662;2023-04-28T16:05:08;99648.09;;;12.91;34.24
53689;BME280;39583;54.682;30.662;2023-04-28T16:07:34;99647.53;;;13.13;33.38
53689;BME280;39583;54.682;30.662;2023-04-28T16:10:07;99653.53;;;13.15;33.20
53689;BME280;39583;54.682;30.662;2023-04-28T16:12:34;99661.97;;;12.65;33.47
53689;BME280;39583;54.682;30.662;2023-04-28T16:15:00;99656.75;;;12.33;34.02
53689;BME280;39583;54.682;30.662;2023-04-28T16:17:27;99662.47;;;12.25;34.41
53689;BME280;39583;54.682;30.662;2023-04-28T16:19:54;99660.03;;;12.54;34.60
53689;BME280;39583;54.682;30.662;2023-04-28T16:22:20;99654.66;;;12.95;33.88
53689;BME280;39583;54.682;30.662;2023-04-28T16:24:45;99656.53;;;13.25;33.95
53689;BME280;39583;54.682;30.662;2023-04-28T16:27:12;99660.09;;;13.72;33.58
53689;BME280;39583;54.682;30.662;2023-04-28T16:29:38;99653.28;;;13.81;33.49
53689;BME280;39583;54.682;30.662;2023-04-28T16:32:04;99640.19;;;14.02;33.78
53689;BME280;39583;54.682;30.662;2023-04-28T16:34:31;99666.75;;;14.28;33.49
53689;BME280;39583;54.682;30.662;2023-04-28T16:37:00;99663.69;;;14.36;33.44
53689;BME280;39583;54.682;30.662;2023-04-28T16:39:27;99660.25;;;14.41;33.38
53689;BME280;39583;54.682;30.662;2023-04-28T16:41:54;99666.06;;;14.33;32.85
53689;BME280;39583;54.682;30.662;2023-04-28T16:44:20;99665.41;;;13.55;33.62
53689;BME280;39583;54.682;30.662;2023-04-28T16:46:45;99666.50;;;12.53;34.68
53689;BME280;39583;54.682;30.662;2023-04-28T16:49:12;99673.78;;;11.72;35.83
53689;BME280;39583;54.682;30.662;2023-04-28T16:51:38;99672.97;;;11.22;36.84
53689;BME280;39583;54.682;30.662;2023-04-28T16:54:04;99682.56;;;10.80;37.42
53689;BME280;39583;54.682;30.662;2023-04-28T16:56:30;99677.16;;;10.42;37.78
53689;BME280;39583;54.682;30.662;2023-04-28T16:58:56;99668.16;;;10.03;38.52
53689;BME280;39583;54.682;30.662;2023-04-28T17:01:22;99683.06;;;9.86;38.93
53689;BME280;39583;54.682;30.662;2023-04-28T17:03:49;99682.91;;;9.61;39.37
53689;BME280;39583;54.682;30.662;2023-04-28T17:06:15;99681.06;;;9.41;39.76
53689;BME280;39583;54.682;30.662;2023-04-28T17:08:41;99684.75;;;9.21;40.13
53689;BME280;39583;54.682;30.662;2023-04-28T17:11:07;99691.38;;;9.05;40.50
53689;BME280;39583;54.682;30.662;2023-04-28T17:13:34;99689.06;;;8.89;40.64
53689;BME280;39583;54.682;30.662;2023-04-28T17:16:00;99694.59;;;8.74;40.95
53689;BME280;39583;54.682;30.662;2023-04-28T17:18:27;99695.59;;;8.60;41.35
53689;BME280;39583;54.682;30.662;2023-04-28T17:20:54;99696.53;;;8.45;41.43
53689;BME280;39583;54.682;30.662;2023-04-28T17:23:20;99696.03;;;8.28;41.85
53689;BME280;39583;54.682;30.662;2023-04-28T17:25:46;99692.66;;;8.13;42.18
53689;BME280;39583;54.682;30.662;2023-04-28T17:28:12;99701.25;;;8.02;42.43
53689;BME280;39583;54.682;30.662;2023-04-28T17:30:38;99702.63;;;7.85;42.92
53689;BME280;39583;54.682;30.662;2023-04-28T17:33:04;99688.63;;;7.61;43.03
53689;BME280;39583;54.682;30.662;2023-04-28T17:35:30;99701.94;;;7.48;43.84
53689;BME280;39583;54.682;30.662;2023-04-28T17:37:56;99709.50;;;7.17;45.12
53689;BME280;39583;54.682;30.662;2023-04-28T17:40:22;99700.53;;;6.88;45.71
53689;BME280;39583;54.682;30.662;2023-04-28T17:42:54;99712.44;;;6.64;46.25
53689;BME280;39583;54.682;30.662;2023-04-28T17:45:21;99709.13;;;6.47;46.33
53689;BME280;39583;54.682;30.662;2023-04-28T17:47:47;99707.31;;;6.33;46.83
53689;BME280;39583;54.682;30.662;2023-04-28T17:50:13;99705.09;;;6.22;46.98
53689;BME280;39583;54.682;30.662;2023-04-28T17:52:39;99706.41;;;6.11;47.01
53689;BME280;39583;54.682;30.662;2023-04-28T17:55:06;99708.06;;;5.98;47.54
53689;BME280;39583;54.682;30.662;2023-04-28T17:57:31;99714.19;;;5.83;47.99
53689;BME280;39583;54.682;30.662;2023-04-28T17:59:57;99717.69;;;5.69;48.21
53689;BME280;39583;54.682;30.662;2023-04-28T18:02:23;99719.13;;;5.57;49.06
53689;BME280;39583;54.682;30.662;2023-04-28T18:04:49;99718.91;;;5.44;49.46
53689;BME280;39583;54.682;30.662;2023-04-28T18:07:15;99723.22;;;5.30;50.00
53689;BME280;39583;54.682;30.662;2023-04-28T18:09:41;99722.97;;;5.17;50.65
53689;BME280;39583;54.682;30.662;2023-04-28T18:12:08;99723.28;;;4.99;51.02
53689;BME280;39583;54.682;30.662;2023-04-28T18:14:34;99719.22;;;4.80;51.88
53689;BME280;39583;54.682;30.662;2023-04-28T18:17:00;99730.00;;;4.64;52.27
53689;BME280;39583;54.682;30.662;2023-04-28T18:19:26;99742.25;;;4.50;52.38
53689;BME280;39583;54.682;30.662;2023-04-28T18:21:55;99732.13;;;4.37;52.99
53689;BME280;39583;54.682;30.662;2023-04-28T18:24:23;99734.16;;;4.27;53.40
53689;BME280;39583;54.682;30.662;2023-04-28T18:26:49;99731.72;;;4.18;53.69
53689;BME280;39583;54.682;30.662;2023-04-28T18:29:15;99729.75;;;4.03;54.10
53689;BME280;39583;54.682;30.662;2023-04-28T18:31:42;99735.59;;;3.99;54.33
53689;BME280;39583;54.682;30.662;2023-04-28T18:34:08;99743.63;;;3.91;54.86
53689;BME280;39583;54.682;30.662;2023-04-28T18:36:34;99727.00;;;3.72;54.91
53689;BME280;39583;54.682;30.662;2023-04-28T18:39:03;99733.34;;;3.71;55.49
53689;BME280;39583;54.682;30.662;2023-04-28T18:41:29;99708.88;;;3.51;55.60
53689;BME280;39583;54.682;30.662;2023-04-28T18:43:56;99728.88;;;3.55;56.11
53689;BME280;39583;54.682;30.662;2023-04-28T18:46:24;99720.03;;;3.47;56.02
53689;BME280;39583;54.682;30.662;2023-04-28T18:48:51;99718.91;;;3.41;56.49
